sensor_id;sensor_type;location;lat;lon;timestamp;temperature;humidity
752;DHT22;360;48.764;9.164;2023-05-18T05:09:52;19.60;1.00
752;DHT22;360;48.764;9.164;2023-05-18T05:12:21;9.50;1.00
752;DHT22;360;48.764;9.164;2023-05-18T05:14:48;8.90;99.90
752;DHT22;360;48.764;9.164;2023-05-18T05:17:14;9.00;99.90
752;DHT22;360;48.764;9.164;2023-05-18T05:19:41;9.00;99.90
752;DHT22;360;48.764;9.164;2023-05-18T05:22:08;8.80;1.00
752;DHT22;360;48.764;9.164;2023-05-18T05:24:35;8.60;99.90
752;DHT22;360;48.764;9.164;2023-05-18T05:27:02;8.40;99.90
752;DHT22;360;48.764;9.164;2023-05-18T05:29:30;8.40;1.00
752;DHT22;360;48.764;9.164;2023-05-18T05:31:57;8.40;99.90
752;DHT22;360;48.764;9.164;2023-05-18T05:34:24;8.40;1.00
752;DHT22;360;48.764;9.164;2023-05-18T05:36:50;8.40;1.00
752;DHT22;360;48.764;9.164;2023-05-18T05:39:17;8.50;1.00
752;DHT22;360;48.764;9.164;2023-05-18T05:41:44;8.50;1.00
752;DHT22;360;48.764;9.164;2023-05-18T05:44:11;8.60;99.90
752;DHT22;360;48.764;9.164;2023-05-18T05:46:39;8.60;99.90
752;DHT22;360;48.764;9.164;2023-05-18T05:49:05;8.70;99.90
752;DHT22;360;48.764;9.164;2023-05-18T05:51:32;8.70;99.90
752;DHT22;360;48.764;9.164;2023-05-18T05:53:59;8.80;99.90
752;DHT22;360;48.764;9.164;2023-05-18T05:56:26;8.80;99.90
752;DHT22;360;48.764;9.164;2023-05-18T05:58:53;8.90;99.90
752;DHT22;360;48.764;9.164;2023-05-18T06:01:19;9.00;57.10
752;DHT22;360;48.764;9.164;2023-05-18T06:03:48;8.90;99.90
752;DHT22;360;48.764;9.164;2023-05-18T06:06:16;9.10;18.10
752;DHT22;360;48.764;9.164;2023-05-18T06:08:43;9.20;1.00
752;DHT22;360;48.764;9.164;2023-05-18T06:11:11;9.20;1.00
752;DHT22;360;48.764;9.164;2023-05-18T06:13:38;9.20;1.00
752;DHT22;360;48.764;9.164;2023-05-18T06:16:05;9.20;1.00
752;DHT22;360;48.764;9.164;2023-05-18T06:18:31;9.30;1.00
752;DHT22;360;48.764;9.164;2023-05-18T06:21:00;9.20;1.00
752;DHT22;360;48.764;9.164;2023-05-18T06:23:27;9.30;1.00
752;DHT22;360;48.764;9.164;2023-05-18T06:25:54;9.40;1.00
752;DHT22;360;48.764;9.164;2023-05-18T06:28:20;9.40;1.00
752;DHT22;360;48.764;9.164;2023-05-18T06:30:47;9.50;1.00
752;DHT22;360;48.764;9.164;2023-05-18T06:33:14;9.50;1.00
752;DHT22;360;48.764;9.164;2023-05-18T06:35:41;9.60;1.00
752;DHT22;360;48.764;9.164;2023-05-18T06:38:09;9.80;1.00
752;DHT22;360;48.764;9.164;2023-05-18T06:40:36;9.70;1.00
752;DHT22;360;48.764;9.164;2023-05-18T06:43:03;9.70;1.00
752;DHT22;360;48.764;9.164;2023-05-18T06:45:29;9.90;1.00
752;DHT22;360;48.764;9.164;2023-05-18T06:47:56;9.90;1.00
752;DHT22;360;48.764;9.164;2023-05-18T06:50:23;9.90;1.00
752;DHT22;360;48.764;9.164;2023-05-18T06:52:50;10.00;1.00
752;DHT22;360;48.764;9.164;2023-05-18T06:55:18;10.00;1.00
752;DHT22;360;48.764;9.164;2023-05-18T06:57:45;10.10;1.00
752;DHT22;360;48.764;9.164;2023-05-18T07:00:12;10.10;1.00
752;DHT22;360;48.764;9.164;2023-05-18T07:02:39;10.10;1.00
752;DHT22;360;48.764;9.164;2023-05-18T07:05:08;10.30;1.00
752;DHT22;360;48.764;9.164;2023-05-18T07:07:34;10.30;1.00
752;DHT22;360;48.764;9.164;2023-05-18T07:10:02;10.20;1.00
752;DHT22;360;48.764;9.164;2023-05-18T07:12:30;10.40;1.00
752;DHT22;360;48.764;9.164;2023-05-18T07:14:57;10.50;99.90
752;DHT22;360;48.764;9.164;2023-05-18T07:17:24;10.70;99.90
752;DHT22;360;48.764;9.164;2023-05-18T07:19:50;10.80;99.90
752;DHT22;360;48.764;9.164;2023-05-18T07:22:17;10.80;99.90
752;DHT22;360;48.764;9.164;2023-05-18T07:24:44;10.90;99.90
752;DHT22;360;48.764;9.164;2023-05-18T07:27:11;10.90;99.90
752;DHT22;360;48.764;9.164;2023-05-18T07:29:39;11.10;99.90
752;DHT22;360;48.764;9.164;2023-05-18T07:32:06;11.10;99.90
752;DHT22;360;48.764;9.164;2023-05-18T07:34:33;11.00;99.90
752;DHT22;360;48.764;9.164;2023-05-18T07:37:00;11.20;99.90
752;DHT22;360;48.764;9.164;2023-05-18T07:39:27;11.30;99.90
752;DHT22;360;48.764;9.164;2023-05-18T07:41:54;11.40;99.90
752;DHT22;360;48.764;9.164;2023-05-18T07:44:21;11.50;99.90
752;DHT22;360;48.764;9.164;2023-05-18T07:46:49;11.60;99.90
752;DHT22;360;48.764;9.164;2023-05-18T07:49:16;11.70;99.90
752;DHT22;360;48.764;9.164;2023-05-18T07:51:43;11.80;99.90
752;DHT22;360;48.764;9.164;2023-05-18T07:54:09;11.90;99.90
752;DHT22;360;48.764;9.164;2023-05-18T07:56:37;12.00;99.90
752;DHT22;360;48.764;9.164;2023-05-18T07:59:04;12.10;99.90
752;DHT22;360;48.764;9.164;2023-05-18T08:01:30;12.20;99.90
752;DHT22;360;48.764;9.164;2023-05-18T08:03:58;12.30;99.90
752;DHT22;360;48.764;9.164;2023-05-18T08:06:25;12.50;99.90
752;DHT22;360;48.764;9.164;2023-05-18T08:08:52;12.60;99.90
752;DHT22;360;48.764;9.164;2023-05-18T08:11:21;12.80;99.90
752;DHT22;360;48.764;9.164;2023-05-18T08:13:47;12.80;99.90
752;DHT22;360;48.764;9.164;2023-05-18T08:16:14;13.00;99.90
752;DHT22;360;48.764;9.164;2023-05-18T08:18:41;13.00;99.90
752;DHT22;360;48.764;9.164;2023-05-18T08:21:09;13.20;99.90
752;DHT22;360;48.764;9.164;2023-05-18T08:23:37;13.30;99.90
752;DHT22;360;48.764;9.164;2023-05-18T08:26:05;13.20;99.90
752;DHT22;360;48.764;9.164;2023-05-18T08:28:32;13.40;99.90
752;DHT22;360;48.764;9.164;2023-05-18T08:30:59;13.40;99.90
752;DHT22;360;48.764;9.164;2023-05-18T08:33:26;13.40;99.90
752;DHT22;360;48.764;9.164;2023-05-18T08:35:52;13.50;99.90
752;DHT22;360;48.764;9.164;2023-05-18T08:38:21;13.50;99.90
752;DHT22;360;48.764;9.164;2023-05-18T08:40:53;13.60;99.90
752;DHT22;360;48.764;9.164;2023-05-18T08:43:22;13.80;99.90
752;DHT22;360;48.764;9.164;2023-05-18T08:46:03;13.90;99.90
752;DHT22;360;48.764;9.164;2023-05-18T08:48:31;13.90;99.90
752;DHT22;360;48.764;9.164;2023-05-18T08:51:00;14.10;99.90
752;DHT22;360;48.764;9.164;2023-05-18T08:53:31;14.20;99.90
752;DHT22;360;48.764;9.164;2023-05-18T08:55:59;14.20;99.90
752;DHT22;360;48.764;9.164;2023-05-18T08:58:31;14.20;99.90
752;DHT22;360;48.764;9.164;2023-05-18T09:00:59;14.50;99.90
752;DHT22;360;48.764;9.164;2023-05-18T09:03:27;14.50;99.90
752;DHT22;360;48.764;9.164;2023-05-18T09:05:55;14.60;99.90
752;DHT22;360;48.764;9.164;2023-05-18T09:08:22;14.60;99.90
752;DHT22;360;48.764;9.164;2023-05-18T09:10:51;14.70;99.90
752;DHT22;360;48.764;9.164;2023-05-18T09:13:19;14.70;99.90
752;DHT22;360;48.764;9.164;2023-05-18T09:15:46;14.90;99.90
752;DHT22;360;48.764;9.164;2023-05-18T09:18:13;15.10;99.90
752;DHT22;360;48.764;9.164;2023-05-18T09:20:40;15.20;99.90
752;DHT22;360;48.764;9.164;2023-05-18T09:23:07;15.30;95.00
752;DHT22;360;48.764;9.164;2023-05-18T09:25:42;15.20;90.70
752;DHT22;360;48.764;9.164;2023-05-18T09:28:11;15.10;87.30
752;DHT22;360;48.764;9.164;2023-05-18T09:30:40;15.30;82.50
752;DHT22;360;48.764;9.164;2023-05-18T09:33:15;15.30;84.10
752;DHT22;360;48.764;9.164;2023-05-18T09:35:43;15.30;77.10
752;DHT22;360;48.764;9.164;2023-05-18T09:38:11;15.30;66.60
752;DHT22;360;48.764;9.164;2023-05-18T09:40:43;15.50;65.80
752;DHT22;360;48.764;9.164;2023-05-18T09:43:12;15.60;60.20
752;DHT22;360;48.764;9.164;2023-05-18T09:45:42;15.60;64.20
752;DHT22;360;48.764;9.164;2023-05-18T09:48:09;15.50;61.30
752;DHT22;360;48.764;9.164;2023-05-18T09:50:36;15.70;59.40
752;DHT22;360;48.764;9.164;2023-05-18T09:53:05;15.70;58.00
752;DHT22;360;48.764;9.164;2023-05-18T09:55:36;15.80;54.20
752;DHT22;360;48.764;9.164;2023-05-18T09:58:06;15.80;50.50
752;DHT22;360;48.764;9.164;2023-05-18T10:00:40;15.60;48.00
752;DHT22;360;48.764;9.164;2023-05-18T10:03:16;15.50;47.90
752;DHT22;360;48.764;9.164;2023-05-18T10:05:43;15.60;48.10
752;DHT22;360;48.764;9.164;2023-05-18T10:08:11;15.70;46.20
752;DHT22;360;48.764;9.164;2023-05-18T10:10:39;16.00;57.20
752;DHT22;360;48.764;9.164;2023-05-18T10:13:11;16.10;40.10
752;DHT22;360;48.764;9.164;2023-05-18T10:15:48;16.20;39.00
752;DHT22;360;48.764;9.164;2023-05-18T10:18:19;16.30;35.00
752;DHT22;360;48.764;9.164;2023-05-18T10:20:47;16.40;32.20
752;DHT22;360;48.764;9.164;2023-05-18T10:23:15;16.50;41.60
752;DHT22;360;48.764;9.164;2023-05-18T10:25:44;16.30;28.20
752;DHT22;360;48.764;9.164;2023-05-18T10:28:15;16.60;26.50
752;DHT22;360;48.764;9.164;2023-05-18T10:30:45;16.70;26.30
752;DHT22;360;48.764;9.164;2023-05-18T10:33:14;16.80;26.00
752;DHT22;360;48.764;9.164;2023-05-18T10:35:42;17.00;23.90
752;DHT22;360;48.764;9.164;2023-05-18T10:38:10;17.20;22.00
752;DHT22;360;48.764;9.164;2023-05-18T10:40:41;17.20;19.60
752;DHT22;360;48.764;9.164;2023-05-18T10:43:09;17.30;21.20
752;DHT22;360;48.764;9.164;2023-05-18T10:45:36;17.40;26.90
752;DHT22;360;48.764;9.164;2023-05-18T10:48:08;17.40;16.30
752;DHT22;360;48.764;9.164;2023-05-18T10:50:37;17.40;16.50
752;DHT22;360;48.764;9.164;2023-05-18T10:53:05;17.50;14.50
752;DHT22;360;48.764;9.164;2023-05-18T10:55:32;17.50;13.00
752;DHT22;360;48.764;9.164;2023-05-18T10:58:03;17.30;10.30
752;DHT22;360;48.764;9.164;2023-05-18T11:00:33;17.40;11.10
752;DHT22;360;48.764;9.164;2023-05-18T11:03:04;17.30;9.90
752;DHT22;360;48.764;9.164;2023-05-18T11:05:33;17.50;9.70
752;DHT22;360;48.764;9.164;2023-05-18T11:08:01;17.50;9.40
752;DHT22;360;48.764;9.164;2023-05-18T11:10:34;17.60;8.20
752;DHT22;360;48.764;9.164;2023-05-18T11:13:01;17.40;6.00
752;DHT22;360;48.764;9.164;2023-05-18T11:16:06;17.70;5.40
752;DHT22;360;48.764;9.164;2023-05-18T11:18:37;17.60;1.90
752;DHT22;360;48.764;9.164;2023-05-18T11:21:20;17.80;2.50
752;DHT22;360;48.764;9.164;2023-05-18T11:24:22;18.00;1.00
752;DHT22;360;48.764;9.164;2023-05-18T11:26:51;18.00;1.00
752;DHT22;360;48.764;9.164;2023-05-18T11:29:19;18.10;1.00
752;DHT22;360;48.764;9.164;2023-05-18T11:31:48;18.20;1.00
752;DHT22;360;48.764;9.164;2023-05-18T11:37:12;17.90;1.00
752;DHT22;360;48.764;9.164;2023-05-18T11:39:40;18.40;2.50
752;DHT22;360;48.764;9.164;2023-05-18T11:42:08;18.30;1.00
752;DHT22;360;48.764;9.164;2023-05-18T11:44:36;18.10;1.00
752;DHT22;360;48.764;9.164;2023-05-18T11:47:07;18.50;1.00
752;DHT22;360;48.764;9.164;2023-05-18T11:49:40;18.60;1.00
752;DHT22;360;48.764;9.164;2023-05-18T11:52:15;18.40;1.00
752;DHT22;360;48.764;9.164;2023-05-18T11:54:43;18.10;1.00
752;DHT22;360;48.764;9.164;2023-05-18T11:57:13;18.10;1.00
752;DHT22;360;48.764;9.164;2023-05-18T11:59:41;18.30;1.00
752;DHT22;360;48.764;9.164;2023-05-18T12:02:09;18.30;1.00
752;DHT22;360;48.764;9.164;2023-05-18T12:04:42;18.10;1.00
752;DHT22;360;48.764;9.164;2023-05-18T12:07:11;18.50;1.00
752;DHT22;360;48.764;9.164;2023-05-18T12:09:41;18.80;1.00
752;DHT22;360;48.764;9.164;2023-05-18T12:12:09;19.00;1.00
752;DHT22;360;48.764;9.164;2023-05-18T12:14:39;18.70;1.00
752;DHT22;360;48.764;9.164;2023-05-18T12:17:06;18.60;1.00
752;DHT22;360;48.764;9.164;2023-05-18T12:19:51;18.30;1.00
752;DHT22;360;48.764;9.164;2023-05-18T12:22:18;18.40;1.00
752;DHT22;360;48.764;9.164;2023-05-18T12:24:50;18.30;1.00
752;DHT22;360;48.764;9.164;2023-05-18T12:27:20;18.20;1.00
752;DHT22;360;48.764;9.164;2023-05-18T12:29:48;18.20;1.00
752;DHT22;360;48.764;9.164;2023-05-18T12:32:15;18.40;1.00
752;DHT22;360;48.764;9.164;2023-05-18T12:34:43;18.40;1.00
752;DHT22;360;48.764;9.164;2023-05-18T12:37:10;18.50;1.00
752;DHT22;360;48.764;9.164;2023-05-18T12:39:37;18.40;1.00
752;DHT22;360;48.764;9.164;2023-05-18T12:42:09;18.40;1.00
752;DHT22;360;48.764;9.164;2023-05-18T12:44:36;18.90;1.00
752;DHT22;360;48.764;9.164;2023-05-18T12:47:04;19.10;1.00
752;DHT22;360;48.764;9.164;2023-05-18T12:49:35;19.30;1.00
752;DHT22;360;48.764;9.164;2023-05-18T12:52:11;19.30;1.00
752;DHT22;360;48.764;9.164;2023-05-18T12:54:51;19.40;1.00
752;DHT22;360;48.764;9.164;2023-05-18T12:57:26;19.70;1.00
752;DHT22;360;48.764;9.164;2023-05-18T12:59:55;19.30;1.00
752;DHT22;360;48.764;9.164;2023-05-18T13:02:30;19.10;1.00
752;DHT22;360;48.764;9.164;2023-05-18T13:05:01;19.00;1.00
752;DHT22;360;48.764;9.164;2023-05-18T13:07:28;19.00;1.00
752;DHT22;360;48.764;9.164;2023-05-18T13:09:59;19.00;1.00
752;DHT22;360;48.764;9.164;2023-05-18T13:12:38;19.30;1.00
752;DHT22;360;48.764;9.164;2023-05-18T13:15:09;19.60;1.00
752;DHT22;360;48.764;9.164;2023-05-18T13:17:37;19.40;1.00
752;DHT22;360;48.764;9.164;2023-05-18T13:20:11;19.20;1.00
752;DHT22;360;48.764;9.164;2023-05-18T13:22:38;19.00;1.00
752;DHT22;360;48.764;9.164;2023-05-18T13:25:06;19.00;1.00
752;DHT22;360;48.764;9.164;2023-05-18T13:27:33;18.90;1.00
752;DHT22;360;48.764;9.164;2023-05-18T13:30:02;19.00;1.00
752;DHT22;360;48.764;9.164;2023-05-18T13:32:28;19.40;1.00
752;DHT22;360;48.764;9.164;2023-05-18T13:34:55;19.70;1.00
752;DHT22;360;48.764;9.164;2023-05-18T13:37:22;19.70;1.00
752;DHT22;360;48.764;9.164;2023-05-18T13:39:49;19.30;1.00
752;DHT22;360;48.764;9.164;2023-05-18T13:42:16;19.10;1.00
752;DHT22;360;48.764;9.164;2023-05-18T13:44:45;19.10;1.00
752;DHT22;360;48.764;9.164;2023-05-18T13:47:13;19.30;1.00
752;DHT22;360;48.764;9.164;2023-05-18T13:49:40;19.70;1.00
752;DHT22;360;48.764;9.164;2023-05-18T14:29:02;20.00;1.00
